Time;durP1;ratioP1;P1;durP2;ratioP2;P2;SDS_P1;SDS_P2;PMS_P1;PMS_P2;Temp;Humidity;BMP_temperature;BMP_pressure;BME280_temperature;BME280_humidity;BME280_pressure;Samples;Min_cycle;Max_cycle;Signal;HPM_P1;HPM_P2
2023/06/18 00:01:57;;;;;;;10.20;9.10;;;24.50;51.00;;;;;;6265847;22;20864;-65
2023/06/18 00:04:23;;;;;;;10.00;9.13;;;24.40;51.20;;;;;;6263897;22;20464;-65
2023/06/18 00:06:49;;;;;;;10.70;9.70;;;24.40;51.20;;;;;;6264594;22;20841;-65
2023/06/18 00:09:14;;;;;;;10.97;9.97;;;24.30;51.10;;;;;;6264686;22;20174;-65
2023/06/18 00:11:40;;;;;;;11.30;9.90;;;24.30;51.30;;;;;;6261510;22;20413;-64
2023/06/18 00:14:06;;;;;;;11.40;10.10;;;24.30;51.40;;;;;;6265353;22;20153;-65
2023/06/18 00:16:31;;;;;;;10.37;9.33;;;24.20;51.60;;;;;;6265029;22;20584;-65
2023/06/18 00:18:57;;;;;;;9.57;8.77;;;24.20;52.60;;;;;;6265554;22;20193;-65
2023/06/18 00:21:22;;;;;;;9.53;8.70;;;24.10;52.10;;;;;;6265493;22;20150;-65
2023/06/18 00:23:48;;;;;;;10.00;9.20;;;24.10;52.10;;;;;;6265925;22;20435;-65
2023/06/18 00:26:13;;;;;;;10.13;9.20;;;24.00;52.10;;;;;;6265381;22;20617;-64
2023/06/18 00:28:39;;;;;;;9.90;9.00;;;24.00;52.10;;;;;;6266649;22;20173;-64
2023/06/18 00:31:05;;;;;;;10.80;9.73;;;23.90;52.00;;;;;;6268511;22;20192;-65
2023/06/18 00:33:33;;;;;;;11.87;10.67;;;23.90;52.00;;;;;;6266429;22;20150;-65
2023/06/18 00:35:59;;;;;;;10.37;9.33;;;23.90;52.00;;;;;;6266200;22;20397;-65
2023/06/18 00:38:27;;;;;;;10.43;9.43;;;23.90;51.90;;;;;;6267751;22;20397;-65
2023/06/18 00:40:53;;;;;;;10.40;9.40;;;23.80;51.90;;;;;;6267635;22;20468;-65
2023/06/18 00:43:18;;;;;;;11.70;10.50;;;23.80;51.90;;;;;;6265190;22;20373;-64
2023/06/18 00:45:47;;;;;;;16.13;11.40;;;23.80;51.90;;;;;;6268468;22;20377;-64
2023/06/18 00:48:17;;;;;;;10.40;9.53;;;23.70;51.80;;;;;;6266547;22;20254;-64
2023/06/18 00:50:42;;;;;;;10.33;9.43;;;23.70;51.80;;;;;;6267480;22;20377;-64
2023/06/18 00:53:09;;;;;;;10.90;9.80;;;23.70;51.90;;;;;;6239552;22;21026;-64
2023/06/18 00:55:37;;;;;;;9.73;8.70;;;23.70;52.00;;;;;;6240781;22;20151;-64
2023/06/18 00:58:04;;;;;;;10.57;9.67;;;23.70;52.10;;;;;;6267207;22;20428;-64
2023/06/18 01:00:34;;;;;;;11.73;10.57;;;23.70;52.10;;;;;;6267698;22;20460;-64
2023/06/18 01:03:15;;;;;;;11.07;10.07;;;23.70;52.10;;;;;;6266296;22;20353;-64
2023/06/18 01:05:49;;;;;;;11.93;10.93;;;23.70;52.40;;;;;;6266015;22;20368;-64
2023/06/18 01:08:17;;;;;;;12.00;10.73;;;23.70;52.60;;;;;;6266282;22;20432;-64
2023/06/18 01:10:43;;;;;;;10.33;9.13;;;23.70;53.10;;;;;;6266993;22;20369;-65
2023/06/18 01:13:10;;;;;;;13.67;10.50;;;23.70;53.20;;;;;;6266561;22;20420;-64
2023/06/18 01:15:39;;;;;;;11.13;10.13;;;23.70;53.40;;;;;;6266337;22;20365;-65
2023/06/18 01:18:07;;;;;;;11.10;10.07;;;23.70;53.50;;;;;;6267274;22;20389;-65
2023/06/18 01:20:44;;;;;;;12.20;11.10;;;23.70;53.50;;;;;;6237593;22;20932;-65
2023/06/18 01:23:25;;;;;;;11.90;10.80;;;23.70;53.50;;;;;;6265882;22;20441;-65
2023/06/18 01:25:52;;;;;;;12.93;11.70;;;23.60;53.50;;;;;;6267582;22;20609;-65
2023/06/18 01:28:18;;;;;;;13.33;11.93;;;23.60;53.60;;;;;;6266427;22;20477;-65
2023/06/18 01:30:44;;;;;;;11.00;9.90;;;23.60;53.80;;;;;;6265050;22;20727;-65
2023/06/18 01:33:12;;;;;;;12.47;11.27;;;23.50;53.70;;;;;;6266038;22;20178;-65
2023/06/18 01:35:38;;;;;;;12.47;11.27;;;23.50;54.10;;;;;;6266051;22;20381;-65
2023/06/18 01:38:27;;;;;;;12.20;11.00;;;23.40;54.30;;;;;;6267152;22;20389;-65
2023/06/18 01:41:07;;;;;;;11.83;10.67;;;23.40;54.40;;;;;;6258417;22;20153;-65
2023/06/18 01:43:41;;;;;;;13.47;12.30;;;23.40;54.50;;;;;;6261809;22;20692;-65
2023/06/18 01:46:11;;;;;;;13.57;12.37;;;23.30;54.90;;;;;;6261867;22;20629;-65
2023/06/18 01:48:44;;;;;;;13.77;12.47;;;23.30;55.30;;;;;;6265302;22;20892;-65
2023/06/18 01:51:11;;;;;;;13.40;12.13;;;23.30;55.80;;;;;;6261470;22;20908;-65
2023/06/18 01:53:40;;;;;;;12.20;11.00;;;23.20;56.10;;;;;;6264543;22;20395;-66
2023/06/18 01:56:09;;;;;;;15.53;14.00;;;23.20;56.80;;;;;;6239883;22;21012;-66
2023/06/18 01:58:36;;;;;;;15.37;12.10;;;23.10;57.00;;;;;;6266676;22;20385;-66
2023/06/18 02:01:04;;;;;;;14.07;12.67;;;23.10;57.00;;;;;;6266878;22;20389;-66
2023/06/18 02:03:30;;;;;;;22.13;14.40;;;23.00;57.80;;;;;;6266926;22;20374;-66
2023/06/18 02:05:55;;;;;;;15.00;12.97;;;22.90;58.20;;;;;;6266517;22;20860;-66
2023/06/18 02:08:21;;;;;;;15.47;13.97;;;22.80;58.70;;;;;;6239044;22;20185;-66
2023/06/18 02:10:47;;;;;;;16.40;12.83;;;22.60;59.20;;;;;;6266780;22;20233;-65
2023/06/18 02:13:13;;;;;;;14.90;13.50;;;22.50;59.40;;;;;;6266318;22;20177;-64
2023/06/18 02:15:40;;;;;;;13.77;12.53;;;22.50;59.60;;;;;;6265764;22;20376;-64
2023/06/18 02:18:07;;;;;;;15.03;13.63;;;22.40;59.80;;;;;;6265147;22;20712;-64
2023/06/18 02:20:32;;;;;;;14.93;13.33;;;22.40;59.80;;;;;;6267381;22;20369;-64
2023/06/18 02:22:58;;;;;;;13.77;12.37;;;22.40;60.30;;;;;;6263238;22;21032;-64
2023/06/18 02:25:29;;;;;;;14.17;12.97;;;22.30;60.20;;;;;;6267366;22;20157;-64
2023/06/18 02:28:02;;;;;;;13.17;11.80;;;22.40;60.10;;;;;;6265077;22;20405;-64
2023/06/18 02:30:29;;;;;;;14.10;12.60;;;22.40;59.80;;;;;;6264876;22;20378;-65
2023/06/18 02:32:55;;;;;;;14.37;13.10;;;22.40;59.30;;;;;;6266080;22;20424;-65
2023/06/18 02:35:21;;;;;;;12.70;11.63;;;22.20;59.50;;;;;;6266924;22;20369;-65
2023/06/18 02:37:46;;;;;;;13.80;12.40;;;22.10;59.60;;;;;;6266029;22;20455;-65
2023/06/18 02:40:14;;;;;;;13.83;12.57;;;22.10;59.50;;;;;;6265598;22;20369;-65
2023/06/18 02:42:47;;;;;;;13.37;11.87;;;22.00;59.30;;;;;;6266244;22;20621;-65
2023/06/18 02:45:23;;;;;;;13.60;12.30;;;21.90;58.60;;;;;;6266659;22;20365;-65
2023/06/18 02:47:49;;;;;;;12.77;11.63;;;21.80;58.30;;;;;;6265360;22;20499;-65
2023/06/18 02:50:16;;;;;;;12.93;11.73;;;21.70;58.20;;;;;;6266246;22;20381;-65
2023/06/18 02:52:43;;;;;;;14.63;13.33;;;21.70;58.10;;;;;;6266157;22;20975;-65
2023/06/18 02:55:09;;;;;;;13.23;11.57;;;21.70;58.30;;;;;;6265309;22;21150;-65
2023/06/18 02:57:36;;;;;;;13.07;11.93;;;21.60;58.50;;;;;;6266369;22;20495;-65
2023/06/18 03:00:09;;;;;;;13.23;12.03;;;21.50;58.40;;;;;;6266220;22;20376;-65
2023/06/18 03:02:35;;;;;;;13.40;12.10;;;21.50;58.50;;;;;;6266201;22;20472;-65
2023/06/18 03:05:01;;;;;;;13.33;11.93;;;21.40;58.50;;;;;;6265742;22;20723;-65
2023/06/18 03:07:27;;;;;;;13.37;12.17;;;21.30;58.90;;;;;;6265621;22;20452;-65
2023/06/18 03:09:53;;;;;;;13.63;11.73;;;21.10;59.20;;;;;;6263775;22;20151;-65
2023/06/18 03:12:18;;;;;;;13.23;12.13;;;21.10;59.40;;;;;;6263587;22;20416;-65
2023/06/18 03:14:44;;;;;;;13.27;11.97;;;21.10;59.60;;;;;;6264271;22;20431;-65
2023/06/18 03:17:10;;;;;;;11.67;10.60;;;20.90;59.80;;;;;;6266330;22;20154;-65
2023/06/18 03:19:35;;;;;;;12.00;10.80;;;20.80;59.70;;;;;;6265173;22;20172;-65
2023/06/18 03:22:02;;;;;;;13.67;12.40;;;20.90;59.70;;;;;;6263062;22;20154;-65
2023/06/18 03:24:28;;;;;;;12.80;11.80;;;20.80;60.80;;;;;;6263259;22;20162;-65
2023/06/18 03:26:53;;;;;;;12.60;11.40;;;20.70;61.10;;;;;;6238735;22;20420;-65
2023/06/18 03:29:20;;;;;;;12.90;11.60;;;20.80;61.20;;;;;;6264664;22;20178;-65
2023/06/18 03:31:46;;;;;;;12.57;11.27;;;20.80;61.20;;;;;;6264736;22;20519;-64
2023/06/18 03:34:12;;;;;;;11.83;10.80;;;20.80;61.20;;;;;;6264238;22;20722;-65
2023/06/18 03:36:41;;;;;;;12.03;11.07;;;20.90;61.10;;;;;;6263830;22;20707;-65
2023/06/18 03:39:08;;;;;;;11.80;10.70;;;20.90;60.80;;;;;;6263116;22;20397;-65
2023/06/18 03:41:34;;;;;;;11.83;10.80;;;20.90;60.60;;;;;;6265497;22;20374;-65
2023/06/18 03:44:00;;;;;;;12.87;11.43;;;21.00;60.20;;;;;;6263974;22;20829;-65
2023/06/18 03:46:25;;;;;;;11.27;10.13;;;21.00;60.00;;;;;;6266242;22;20493;-65
2023/06/18 03:48:51;;;;;;;11.60;10.50;;;21.00;59.70;;;;;;6264454;22;20174;-65
2023/06/18 03:51:18;;;;;;;11.03;10.00;;;21.00;59.30;;;;;;6265146;22;20151;-65
2023/06/18 03:53:43;;;;;;;11.27;10.17;;;21.10;59.00;;;;;;6266069;22;20153;-65
2023/06/18 03:56:09;;;;;;;10.60;9.60;;;21.00;57.90;;;;;;6266095;22;20361;-65
2023/06/18 03:58:34;;;;;;;10.27;9.37;;;21.00;57.70;;;;;;6263337;22;20599;-65
2023/06/18 04:01:00;;;;;;;10.37;9.37;;;20.90;57.00;;;;;;6263731;22;20193;-65
2023/06/18 04:03:26;;;;;;;11.33;9.10;;;20.90;57.00;;;;;;6265259;22;20211;-65
2023/06/18 04:05:51;;;;;;;10.83;9.77;;;21.00;57.10;;;;;;6263661;22;20162;-64
2023/06/18 04:08:17;;;;;;;9.93;8.93;;;21.00;57.10;;;;;;6264798;22;20257;-65
2023/06/18 04:10:43;;;;;;;10.10;9.10;;;21.10;57.00;;;;;;6263989;22;20200;-65
2023/06/18 04:13:15;;;;;;;11.47;10.27;;;21.10;57.10;;;;;;6263584;22;20170;-65
2023/06/18 04:15:41;;;;;;;10.00;9.00;;;21.10;57.10;;;;;;6264930;22;20365;-65
2023/06/18 04:18:07;;;;;;;13.57;10.83;;;21.10;57.10;;;;;;6264817;22;20451;-65
2023/06/18 04:20:32;;;;;;;10.00;9.10;;;21.10;56.90;;;;;;6264908;22;20762;-65
2023/06/18 04:22:58;;;;;;;10.43;9.50;;;21.10;56.90;;;;;;6263907;22;20154;-65
2023/06/18 04:25:24;;;;;;;10.93;9.77;;;21.10;57.00;;;;;;6265647;22;20598;-64
2023/06/18 04:27:49;;;;;;;11.00;9.90;;;21.10;56.90;;;;;;6237756;22;20181;-67
2023/06/18 04:30:15;;;;;;;10.40;9.50;;;21.10;56.80;;;;;;6264293;22;20146;-65
2023/06/18 04:32:41;;;;;;;11.03;9.93;;;21.10;56.60;;;;;;6265046;22;20181;-65
2023/06/18 04:35:07;;;;;;;11.50;9.67;;;21.10;56.50;;;;;;6264354;22;20151;-65
2023/06/18 04:37:32;;;;;;;11.37;10.23;;;21.10;56.60;;;;;;6263647;22;20157;-65
2023/06/18 04:39:58;;;;;;;11.53;9.77;;;21.20;57.00;;;;;;6264362;22;20369;-64
2023/06/18 04:42:23;;;;;;;10.80;9.80;;;21.20;57.70;;;;;;6266089;22;20582;-65
2023/06/18 04:44:49;;;;;;;14.30;9.23;;;21.20;57.10;;;;;;6236000;22;20517;-64
2023/06/18 04:47:15;;;;;;;9.87;8.97;;;21.20;57.20;;;;;;6265083;22;20147;-64
2023/06/18 04:49:42;;;;;;;10.10;9.20;;;21.20;57.20;;;;;;6264826;22;20174;-64
2023/06/18 04:52:07;;;;;;;10.20;9.30;;;21.10;57.40;;;;;;6265454;22;20953;-64
2023/06/18 04:54:33;;;;;;;9.97;9.07;;;21.20;57.60;;;;;;6265166;22;20489;-64
2023/06/18 04:56:59;;;;;;;13.83;10.03;;;21.10;57.70;;;;;;6265990;22;20151;-65
2023/06/18 04:59:25;;;;;;;12.37;11.17;;;21.10;57.80;;;;;;6265869;22;20219;-65
2023/06/18 05:01:51;;;;;;;10.80;9.80;;;21.10;58.10;;;;;;6265230;22;20171;-65
2023/06/18 05:04:16;;;;;;;11.07;10.10;;;21.10;58.00;;;;;;6264271;22;20158;-65
2023/06/18 05:06:42;;;;;;;10.53;9.60;;;21.00;57.90;;;;;;6265607;22;20373;-64
2023/06/18 05:09:08;;;;;;;10.80;9.80;;;21.00;57.90;;;;;;6264527;22;20166;-64
2023/06/18 05:11:34;;;;;;;10.50;9.07;;;21.00;57.70;;;;;;6264978;22;20592;-65
2023/06/18 05:14:00;;;;;;;12.50;10.30;;;21.10;57.80;;;;;;6265541;22;20454;-65
2023/06/18 05:16:26;;;;;;;11.50;10.40;;;21.10;57.80;;;;;;6265748;22;20143;-65
2023/06/18 05:18:52;;;;;;;10.50;9.60;;;21.10;57.70;;;;;;6268061;22;20392;-65
2023/06/18 05:21:18;;;;;;;10.93;9.90;;;21.10;57.70;;;;;;6266992;22;20151;-65
2023/06/18 05:23:44;;;;;;;10.53;9.43;;;21.20;57.70;;;;;;6267049;22;20617;-65
2023/06/18 05:26:10;;;;;;;11.20;10.20;;;21.20;57.50;;;;;;6266656;22;20633;-65
2023/06/18 05:28:35;;;;;;;9.43;8.53;;;21.30;57.50;;;;;;6266316;22;20420;-65
2023/06/18 05:31:01;;;;;;;10.70;9.70;;;21.30;57.60;;;;;;6266583;22;20439;-65
2023/06/18 05:33:26;;;;;;;10.50;9.60;;;21.30;58.00;;;;;;6266934;22;20174;-65
2023/06/18 05:35:52;;;;;;;10.60;9.37;;;21.40;58.40;;;;;;6264593;22;20155;-65
2023/06/18 05:38:18;;;;;;;13.87;11.10;;;21.40;58.10;;;;;;6266944;22;20173;-65
2023/06/18 05:40:43;;;;;;;11.97;10.87;;;21.50;58.20;;;;;;6266325;22;20580;-65
2023/06/18 05:43:09;;;;;;;13.77;12.37;;;21.50;58.80;;;;;;6265078;22;20225;-65
2023/06/18 05:45:35;;;;;;;13.73;12.43;;;21.60;59.40;;;;;;6265970;22;20201;-65
2023/06/18 05:48:00;;;;;;;13.47;12.27;;;21.60;60.10;;;;;;6238562;22;20499;-65
2023/06/18 05:50:27;;;;;;;14.90;13.40;;;21.60;60.50;;;;;;6265424;22;20159;-65
2023/06/18 05:52:52;;;;;;;13.13;11.83;;;21.70;61.20;;;;;;6265575;22;20201;-65
2023/06/18 05:55:18;;;;;;;13.33;12.03;;;21.80;60.70;;;;;;6266512;22;20396;-65
2023/06/18 05:57:44;;;;;;;13.50;12.20;;;21.80;60.40;;;;;;6267271;22;20173;-65
2023/06/18 06:00:11;;;;;;;12.47;11.10;;;21.90;60.20;;;;;;6265446;22;20150;-65
2023/06/18 06:02:37;;;;;;;12.07;11.00;;;21.90;59.90;;;;;;6265851;22;20200;-65
2023/06/18 06:05:02;;;;;;;11.67;10.53;;;22.00;59.70;;;;;;6238549;22;20389;-65
2023/06/18 06:07:28;;;;;;;11.67;10.57;;;22.00;59.50;;;;;;6265302;22;20380;-65
2023/06/18 06:09:55;;;;;;;11.93;10.73;;;22.00;59.30;;;;;;6265335;22;20479;-65
2023/06/18 06:12:21;;;;;;;11.97;10.97;;;22.10;59.30;;;;;;6266335;22;20178;-65
2023/06/18 06:14:47;;;;;;;11.30;10.20;;;22.10;59.30;;;;;;6266009;22;20373;-65
2023/06/18 06:17:13;;;;;;;11.33;10.33;;;22.20;59.30;;;;;;6238643;22;20483;-65
2023/06/18 06:19:38;;;;;;;13.90;11.23;;;22.30;59.10;;;;;;6266383;22;20242;-65
2023/06/18 06:22:04;;;;;;;11.90;10.67;;;22.30;59.00;;;;;;6265701;22;20213;-65
2023/06/18 06:24:30;;;;;;;14.53;11.27;;;22.30;58.90;;;;;;6265360;22;20288;-65
2023/06/18 06:26:55;;;;;;;11.40;10.40;;;22.40;58.80;;;;;;6267954;22;20158;-65
2023/06/18 06:29:21;;;;;;;11.33;10.23;;;22.40;58.70;;;;;;6265904;22;20397;-65
2023/06/18 06:31:47;;;;;;;16.20;10.63;;;22.50;58.90;;;;;;6263008;22;20428;-66
2023/06/18 06:34:12;;;;;;;11.30;10.30;;;22.50;58.70;;;;;;6265796;22;20481;-66
2023/06/18 06:36:38;;;;;;;12.50;10.30;;;22.60;58.60;;;;;;6266631;22;20543;-66
2023/06/18 06:39:04;;;;;;;11.27;10.13;;;22.60;58.40;;;;;;6238208;22;20202;-65
2023/06/18 06:41:29;;;;;;;12.80;11.67;;;22.60;58.30;;;;;;6267467;22;20230;-64
2023/06/18 06:43:55;;;;;;;12.83;11.63;;;22.70;58.30;;;;;;6264806;22;20158;-64
2023/06/18 06:46:21;;;;;;;11.23;10.13;;;22.80;58.30;;;;;;6267029;22;20182;-64
2023/06/18 06:48:46;;;;;;;12.83;11.63;;;22.80;58.10;;;;;;6266205;22;20505;-66
2023/06/18 06:51:12;;;;;;;13.67;12.37;;;22.90;58.00;;;;;;6266637;22;20209;-65
2023/06/18 06:53:38;;;;;;;12.90;11.70;;;22.90;57.60;;;;;;6265767;22;20178;-65
2023/06/18 06:56:03;;;;;;;13.67;12.27;;;22.90;57.50;;;;;;6266564;22;20146;-65
2023/06/18 06:58:29;;;;;;;12.97;11.47;;;23.00;57.30;;;;;;6266960;22;20593;-65
2023/06/18 07:00:54;;;;;;;13.70;10.53;;;23.00;57.00;;;;;;6264119;22;20163;-65
2023/06/18 07:03:20;;;;;;;11.13;10.13;;;23.10;56.80;;;;;;6265515;22;20192;-65
2023/06/18 07:05:46;;;;;;;13.57;12.17;;;23.20;56.60;;;;;;6266218;22;20222;-64
2023/06/18 07:08:11;;;;;;;16.80;12.80;;;23.20;56.40;;;;;;6265240;22;20174;-65
2023/06/18 07:10:37;;;;;;;14.60;12.73;;;23.30;56.40;;;;;;6266794;22;20227;-65
2023/06/18 07:13:03;;;;;;;11.23;10.00;;;23.30;56.20;;;;;;6264668;22;20170;-66
2023/06/18 07:15:29;;;;;;;11.77;10.70;;;23.40;56.00;;;;;;6238687;22;20146;-66
2023/06/18 07:17:54;;;;;;;11.50;10.47;;;23.50;55.40;;;;;;6266249;22;20401;-67
2023/06/18 07:20:20;;;;;;;10.57;9.60;;;23.60;55.50;;;;;;6267327;22;20465;-65
2023/06/18 07:22:46;;;;;;;11.97;10.97;;;23.60;55.40;;;;;;6211196;22;20159;-65
2023/06/18 07:25:11;;;;;;;10.30;9.40;;;23.70;55.40;;;;;;6265577;22;20450;-66
2023/06/18 07:27:37;;;;;;;11.20;10.10;;;23.70;55.40;;;;;;6266235;22;20146;-65
2023/06/18 07:30:03;;;;;;;11.97;10.37;;;23.80;55.70;;;;;;6263150;22;20212;-65
2023/06/18 07:32:28;;;;;;;11.43;10.30;;;23.90;55.60;;;;;;6265608;22;20240;-66
2023/06/18 07:34:54;;;;;;;11.73;9.70;;;24.00;55.60;;;;;;6264599;22;20221;-66
2023/06/18 07:37:20;;;;;;;11.67;10.50;;;24.00;55.60;;;;;;6266038;22;20156;-65
2023/06/18 07:39:45;;;;;;;12.70;10.60;;;24.10;55.30;;;;;;6265883;22;20166;-66
2023/06/18 07:42:11;;;;;;;13.10;11.90;;;24.20;54.90;;;;;;6265603;22;20224;-65
2023/06/18 07:44:37;;;;;;;17.10;15.50;;;24.20;54.40;;;;;;6265589;22;20229;-65
2023/06/18 07:47:03;;;;;;;11.80;10.80;;;24.30;54.20;;;;;;6264283;22;20383;-65
2023/06/18 07:49:28;;;;;;;11.33;10.30;;;24.40;54.40;;;;;;6265317;22;20227;-65
2023/06/18 07:51:54;;;;;;;13.43;10.60;;;24.40;54.50;;;;;;6266703;22;20179;-65
2023/06/18 07:54:20;;;;;;;11.60;10.60;;;24.40;54.50;;;;;;6266193;22;20222;-65
2023/06/18 07:56:45;;;;;;;11.03;9.90;;;24.50;54.50;;;;;;6267138;22;20149;-66
2023/06/18 07:59:11;;;;;;;11.17;9.77;;;24.60;54.50;;;;;;6263970;22;20385;-64
2023/06/18 08:01:37;;;;;;;11.70;10.67;;;24.70;54.40;;;;;;6266368;22;20219;-64
2023/06/18 08:04:02;;;;;;;10.87;9.87;;;24.70;54.30;;;;;;6265415;22;20158;-64
2023/06/18 08:06:28;;;;;;;11.90;10.80;;;24.80;54.30;;;;;;6265107;22;20159;-64
2023/06/18 08:08:53;;;;;;;12.00;10.90;;;24.90;54.20;;;;;;6262801;22;20193;-65
2023/06/18 08:11:19;;;;;;;14.27;12.87;;;24.90;54.00;;;;;;6262855;22;20224;-64
2023/06/18 08:13:44;;;;;;;11.97;10.80;;;25.00;54.10;;;;;;6265284;22;20157;-65
2023/06/18 08:16:10;;;;;;;11.83;10.77;;;25.00;53.70;;;;;;6265142;22;20153;-65
2023/06/18 08:18:36;;;;;;;12.33;10.90;;;25.10;53.70;;;;;;6266112;22;20205;-65
2023/06/18 08:21:02;;;;;;;11.40;10.40;;;25.30;53.70;;;;;;6263274;22;20771;-65
2023/06/18 08:23:28;;;;;;;11.67;10.67;;;25.30;53.60;;;;;;6238305;22;20182;-65
2023/06/18 08:25:53;;;;;;;15.10;11.17;;;25.40;53.40;;;;;;6261814;22;20381;-65
2023/06/18 08:28:19;;;;;;;11.80;10.80;;;25.50;53.40;;;;;;6263080;22;20170;-65
2023/06/18 08:30:44;;;;;;;12.10;10.90;;;25.60;53.20;;;;;;6264105;22;20150;-64
2023/06/18 08:33:10;;;;;;;12.37;11.27;;;25.60;53.10;;;;;;6263432;22;20174;-66
2023/06/18 08:35:37;;;;;;;11.33;10.47;;;25.60;53.30;;;;;;6263531;22;20620;-66
2023/06/18 08:38:03;;;;;;;10.87;9.87;;;25.60;53.10;;;;;;6265324;22;20261;-65
2023/06/18 08:40:35;;;;;;;11.00;10.10;;;25.70;53.10;;;;;;6236372;22;20860;-66
2023/06/18 08:43:02;;;;;;;14.13;11.40;;;25.70;53.00;;;;;;6259639;22;20445;-65
2023/06/18 08:45:28;;;;;;;11.53;10.50;;;25.80;52.90;;;;;;6265706;22;20443;-66
2023/06/18 08:47:58;;;;;;;10.70;9.70;;;25.80;52.60;;;;;;6266125;22;20393;-66
2023/06/18 08:50:27;;;;;;;11.90;10.80;;;25.90;52.60;;;;;;6264933;22;20142;-66
2023/06/18 08:52:58;;;;;;;11.40;10.23;;;25.90;52.60;;;;;;6264315;22;20523;-66
2023/06/18 08:55:29;;;;;;;11.60;10.60;;;26.00;52.60;;;;;;6264146;22;20354;-66
2023/06/18 08:58:12;;;;;;;11.70;10.60;;;26.00;52.20;;;;;;6266534;22;20400;-66
2023/06/18 09:00:39;;;;;;;10.90;9.90;;;26.00;52.30;;;;;;6238392;22;20367;-66
2023/06/18 09:03:05;;;;;;;12.33;10.67;;;26.10;52.20;;;;;;6265608;22;20377;-66
2023/06/18 09:05:31;;;;;;;11.53;10.17;;;26.20;52.10;;;;;;6268114;22;20411;-66
2023/06/18 09:07:57;;;;;;;11.73;10.70;;;26.20;52.10;;;;;;6263405;22;20174;-66
2023/06/18 09:10:24;;;;;;;11.23;10.20;;;26.30;51.90;;;;;;6265740;22;20438;-66
2023/06/18 09:12:49;;;;;;;11.30;10.23;;;26.40;51.80;;;;;;6238213;22;20178;-66
2023/06/18 09:15:15;;;;;;;10.50;9.40;;;26.50;51.40;;;;;;6266506;22;20428;-66
2023/06/18 09:17:50;;;;;;;11.90;9.63;;;26.60;51.30;;;;;;6268426;22;20166;-66
2023/06/18 09:20:19;;;;;;;10.50;9.50;;;26.60;51.20;;;;;;6267299;22;20559;-66
2023/06/18 09:22:47;;;;;;;11.00;10.03;;;26.70;51.00;;;;;;6266214;22;20384;-66
2023/06/18 09:25:21;;;;;;;11.23;10.23;;;26.80;50.90;;;;;;6266880;22;20378;-66
2023/06/18 09:27:47;;;;;;;11.70;10.60;;;26.80;51.60;;;;;;6266382;22;20757;-66
2023/06/18 09:30:20;;;;;;;10.40;9.50;;;26.90;51.10;;;;;;6267146;22;20923;-66
2023/06/18 09:32:49;;;;;;;10.73;9.73;;;27.00;50.90;;;;;;6266974;22;20420;-66
2023/06/18 09:35:17;;;;;;;13.87;9.43;;;27.10;50.60;;;;;;6266591;22;20372;-66
2023/06/18 09:37:43;;;;;;;10.70;9.60;;;27.20;50.30;;;;;;6267162;22;20369;-66
2023/06/18 09:40:18;;;;;;;9.93;9.07;;;27.30;49.90;;;;;;6264526;22;20373;-66
2023/06/18 09:42:45;;;;;;;10.43;9.43;;;27.40;49.00;;;;;;6264621;22;20392;-66
2023/06/18 09:45:12;;;;;;;10.27;9.27;;;27.50;48.80;;;;;;6263940;22;20426;-66
2023/06/18 09:47:39;;;;;;;10.40;9.40;;;27.60;48.60;;;;;;6264633;22;20385;-66
2023/06/18 09:50:06;;;;;;;8.97;8.20;;;27.60;48.30;;;;;;6264951;22;20374;-66
2023/06/18 09:52:42;;;;;;;9.30;8.40;;;27.60;47.60;;;;;;6238132;22;20444;-66
2023/06/18 09:55:31;;;;;;;10.20;8.60;;;27.70;46.70;;;;;;6263804;22;20343;-66
2023/06/18 09:57:58;;;;;;;10.33;9.17;;;27.70;46.60;;;;;;6268470;22;20368;-66
2023/06/18 10:00:25;;;;;;;9.87;8.97;;;27.80;46.90;;;;;;6266646;22;21109;-66
2023/06/18 10:02:51;;;;;;;8.80;8.10;;;27.90;45.70;;;;;;6263069;22;20360;-66
2023/06/18 10:05:17;;;;;;;10.13;8.90;;;28.00;44.90;;;;;;6238934;22;20352;-66
2023/06/18 10:07:43;;;;;;;9.20;8.27;;;28.10;45.10;;;;;;6264110;22;20146;-69
2023/06/18 10:10:15;;;;;;;10.00;9.10;;;28.10;45.10;;;;;;6263693;22;20772;-65
2023/06/18 10:12:48;;;;;;;12.40;8.17;;;28.10;44.90;;;;;;6264726;22;20421;-64
2023/06/18 10:15:15;;;;;;;8.10;7.40;;;28.20;45.20;;;;;;6236169;22;20473;-66
2023/06/18 10:17:51;;;;;;;8.77;7.97;;;28.30;45.00;;;;;;6266911;22;20465;-65
2023/06/18 10:20:17;;;;;;;8.90;8.00;;;28.40;44.50;;;;;;6264943;22;20441;-65
2023/06/18 10:22:49;;;;;;;10.40;7.50;;;28.40;44.30;;;;;;6265297;22;20373;-64
2023/06/18 10:25:15;;;;;;;8.27;7.47;;;28.50;42.90;;;;;;6261490;22;20365;-66
2023/06/18 10:27:41;;;;;;;8.80;7.73;;;28.50;41.20;;;;;;6258125;22;20377;-65
2023/06/18 10:30:08;;;;;;;8.90;8.00;;;28.50;41.90;;;;;;6231794;22;20360;-66
2023/06/18 10:32:35;;;;;;;7.80;7.10;;;28.50;42.00;;;;;;6261585;22;20425;-66
2023/06/18 10:35:04;;;;;;;7.70;7.03;;;28.60;41.30;;;;;;6237356;22;20391;-66
2023/06/18 10:37:31;;;;;;;8.60;7.90;;;28.60;40.50;;;;;;6261532;22;20373;-66
2023/06/18 10:39:57;;;;;;;10.90;7.63;;;28.60;41.10;;;;;;6259772;22;20369;-66
2023/06/18 10:42:23;;;;;;;8.13;7.40;;;28.70;40.90;;;;;;6263414;22;20374;-66
2023/06/18 10:44:57;;;;;;;9.77;7.27;;;28.80;41.10;;;;;;6263058;22;21243;-66
2023/06/18 10:47:24;;;;;;;14.77;7.73;;;28.90;40.80;;;;;;6263586;22;20813;-66
2023/06/18 10:50:17;;;;;;;8.53;7.67;;;28.90;40.50;;;;;;6237418;22;20371;-66
2023/06/18 10:52:49;;;;;;;9.67;8.67;;;29.00;39.90;;;;;;6263867;22;20394;-67
2023/06/18 10:55:20;;;;;;;9.53;7.60;;;29.10;39.50;;;;;;6260827;22;20496;-67
2023/06/18 10:58:05;;;;;;;8.13;7.33;;;29.10;39.20;;;;;;6263635;22;20446;-67
2023/06/18 11:00:39;;;;;;;9.10;8.30;;;29.20;39.40;;;;;;6262543;22;20389;-66
2023/06/18 11:03:11;;;;;;;8.37;7.20;;;29.20;39.60;;;;;;6263693;22;20461;-66
2023/06/18 11:05:47;;;;;;;9.77;8.87;;;29.30;39.50;;;;;;6261627;22;20373;-67
2023/06/18 11:08:15;;;;;;;8.43;7.63;;;29.40;39.70;;;;;;6260643;22;20372;-68
2023/06/18 11:10:41;;;;;;;7.33;6.60;;;29.40;39.00;;;;;;6264404;22;20355;-68
2023/06/18 11:13:09;;;;;;;8.07;7.27;;;29.40;38.60;;;;;;6260939;22;20394;-66
2023/06/18 11:15:36;;;;;;;7.30;6.60;;;29.50;38.60;;;;;;6264687;22;20352;-68
2023/06/18 11:18:02;;;;;;;8.30;7.50;;;29.70;38.60;;;;;;6263439;22;20392;-68
2023/06/18 11:20:37;;;;;;;9.40;7.90;;;29.80;38.60;;;;;;6264525;22;20832;-68
2023/06/18 11:23:04;;;;;;;8.20;7.50;;;29.90;38.60;;;;;;6264437;22;20421;-67
2023/06/18 11:25:30;;;;;;;7.90;7.20;;;30.00;38.20;;;;;;6236260;22;20368;-67
2023/06/18 11:28:02;;;;;;;7.30;6.60;;;30.10;38.00;;;;;;6237307;22;20391;-67
2023/06/18 11:30:31;;;;;;;9.53;8.70;;;30.30;38.50;;;;;;6263493;22;20362;-67
2023/06/18 11:32:58;;;;;;;8.70;7.90;;;30.40;38.50;;;;;;6263570;22;20417;-67
2023/06/18 11:35:24;;;;;;;9.20;7.80;;;30.60;38.70;;;;;;6261544;22;20413;-67
2023/06/18 11:37:50;;;;;;;8.30;7.60;;;30.70;38.60;;;;;;6262139;22;20375;-67
2023/06/18 11:40:15;;;;;;;9.03;8.13;;;30.80;38.40;;;;;;6263314;22;20968;-67
2023/06/18 11:42:49;;;;;;;7.23;6.63;;;31.00;38.30;;;;;;6264197;22;20161;-67
2023/06/18 11:45:15;;;;;;;10.07;7.50;;;31.10;37.40;;;;;;6260540;22;20162;-67
2023/06/18 11:47:47;;;;;;;7.70;6.97;;;31.20;38.80;;;;;;6262700;22;20406;-66
2023/06/18 11:50:13;;;;;;;10.63;7.10;;;31.30;38.90;;;;;;6264646;22;20575;-64
2023/06/18 11:52:39;;;;;;;7.60;7.00;;;31.20;37.60;;;;;;6262916;22;20471;-67
2023/06/18 11:55:06;;;;;;;8.07;7.37;;;31.30;37.20;;;;;;6258031;22;20451;-67
2023/06/18 11:57:32;;;;;;;7.10;6.50;;;31.50;37.40;;;;;;6257186;22;20336;-67
2023/06/18 11:59:59;;;;;;;7.50;6.90;;;31.60;37.10;;;;;;6259095;22;20369;-67
2023/06/18 12:02:26;;;;;;;7.60;7.00;;;32.00;36.60;;;;;;6230998;22;20368;-68
2023/06/18 12:04:57;;;;;;;7.67;6.97;;;32.30;36.40;;;;;;6259979;22;20371;-68
2023/06/18 12:07:24;;;;;;;8.33;7.63;;;33.10;36.30;;;;;;6261207;22;20657;-67
2023/06/18 12:09:52;;;;;;;8.47;7.67;;;34.40;34.50;;;;;;6261503;22;21185;-67
2023/06/18 12:12:30;;;;;;;9.60;7.40;;;35.80;34.10;;;;;;6261415;22;20429;-67
2023/06/18 12:15:21;;;;;;;7.73;7.10;;;36.90;33.00;;;;;;6260468;22;20364;-67
2023/06/18 12:18:10;;;;;;;7.60;6.80;;;37.80;32.10;;;;;;6262651;22;20486;-67
2023/06/18 12:20:35;;;;;;;6.60;6.00;;;37.60;30.70;;;;;;6263567;22;20581;-67
2023/06/18 12:23:02;;;;;;;7.30;6.70;;;37.40;30.30;;;;;;6261059;22;20451;-67
2023/06/18 12:25:30;;;;;;;7.40;6.63;;;37.40;30.80;;;;;;6266725;22;20538;-68
2023/06/18 12:27:58;;;;;;;7.50;6.80;;;37.20;30.80;;;;;;6265425;22;20485;-68
2023/06/18 12:30:29;;;;;;;7.27;6.57;;;37.20;30.90;;;;;;6266425;22;20492;-67
2023/06/18 12:33:06;;;;;;;9.50;7.23;;;37.40;31.80;;;;;;6266834;22;21141;-68
2023/06/18 12:35:32;;;;;;;7.37;6.77;;;37.60;31.90;;;;;;6266721;22;20470;-68